Time;durP1;ratioP1;P1;durP2;ratioP2;P2;SDS_P1;SDS_P2;PMS_P1;PMS_P2;Temp;Humidity;BMP_temperature;BMP_pressure;BME280_temperature;BME280_humidity;BME280_pressure;Samples;Min_cycle;Max_cycle;Signal;HPM_P1;HPM_P2
2021/10/09 00:00:16;;;;;;;27.07;14.17;;;6.30;99.90;;;;;;5026779;28;20252;-76
2021/10/09 00:02:43;;;;;;;34.30;14.87;;;6.20;99.90;;;;;;5028897;28;20609;-76
2021/10/09 00:05:10;;;;;;;30.87;15.37;;;6.20;99.90;;;;;;5027403;28;20204;-75
2021/10/09 00:07:37;;;;;;;35.60;14.17;;;6.20;99.90;;;;;;5027773;28;20251;-76
2021/10/09 00:10:06;;;;;;;41.83;14.13;;;6.30;99.90;;;;;;5034950;27;20264;-76
2021/10/09 00:12:34;;;;;;;31.90;14.47;;;6.40;99.90;;;;;;5020566;28;20292;-75
2021/10/09 00:15:02;;;;;;;24.03;14.17;;;6.60;99.90;;;;;;5025724;28;20248;-76
2021/10/09 00:17:30;;;;;;;23.23;14.53;;;6.50;99.90;;;;;;5019379;28;20209;-76
2021/10/09 00:19:57;;;;;;;28.67;15.53;;;6.50;99.90;;;;;;5023783;28;20261;-75
2021/10/09 00:22:25;;;;;;;28.67;13.60;;;6.40;99.90;;;;;;5023300;28;20245;-76
2021/10/09 00:24:52;;;;;;;37.73;14.50;;;6.10;99.90;;;;;;5021584;28;20236;-75
2021/10/09 00:27:19;;;;;;;20.40;13.63;;;5.80;99.90;;;;;;5020110;28;20255;-75
2021/10/09 00:29:46;;;;;;;21.57;12.93;;;5.80;99.90;;;;;;5018345;27;20235;-75
2021/10/09 00:32:13;;;;;;;17.57;11.63;;;5.80;99.90;;;;;;5022859;28;20257;-76
2021/10/09 00:34:41;;;;;;;25.73;12.97;;;5.80;99.90;;;;;;5018185;28;20204;-76
2021/10/09 00:37:08;;;;;;;20.17;12.00;;;5.70;99.90;;;;;;5021801;28;20224;-75
2021/10/09 00:39:35;;;;;;;24.73;13.20;;;5.70;99.90;;;;;;5025378;27;20576;-75
2021/10/09 00:42:04;;;;;;;18.10;12.93;;;5.70;99.90;;;;;;5021810;28;20320;-75
2021/10/09 00:44:31;;;;;;;36.07;15.17;;;5.90;99.90;;;;;;5018056;28;20598;-75
2021/10/09 00:47:01;;;;;;;40.67;14.90;;;5.90;99.90;;;;;;5022648;28;20204;-75
2021/10/09 00:49:29;;;;;;;32.17;14.60;;;5.90;99.90;;;;;;5019047;28;20216;-75
2021/10/09 00:52:00;;;;;;;31.40;16.10;;;5.90;99.90;;;;;;5014375;28;20247;-75
2021/10/09 00:54:27;;;;;;;29.60;15.90;;;5.90;99.90;;;;;;5019460;28;20203;-75
2021/10/09 00:56:58;;;;;;;37.30;17.70;;;6.10;99.90;;;;;;5019421;28;20298;-76
2021/10/09 00:59:27;;;;;;;45.27;17.73;;;6.10;99.90;;;;;;5024568;28;20208;-76
2021/10/09 01:01:56;;;;;;;42.83;15.80;;;6.00;99.90;;;;;;5021787;28;20205;-75
2021/10/09 01:04:23;;;;;;;23.27;16.43;;;6.00;99.90;;;;;;5019437;28;20214;-76
2021/10/09 01:06:50;;;;;;;23.00;16.00;;;6.00;99.90;;;;;;5021731;28;20196;-75
2021/10/09 01:09:19;;;;;;;25.20;15.67;;;6.10;99.90;;;;;;5021014;28;20227;-76
2021/10/09 01:11:46;;;;;;;22.23;15.30;;;6.20;99.90;;;;;;5016819;28;20208;-76
2021/10/09 01:14:13;;;;;;;42.90;15.57;;;6.20;99.90;;;;;;5019784;28;20252;-76
2021/10/09 01:16:40;;;;;;;55.80;15.67;;;6.00;99.90;;;;;;5026802;28;20196;-76
2021/10/09 01:19:08;;;;;;;24.23;15.43;;;5.80;99.90;;;;;;5017863;28;20235;-76
2021/10/09 01:21:41;;;;;;;73.67;17.17;;;5.90;99.90;;;;;;5021034;28;20205;-76
2021/10/09 01:24:09;;;;;;;22.50;15.03;;;5.90;99.90;;;;;;5021024;28;20204;-76
2021/10/09 01:26:36;;;;;;;27.97;15.47;;;5.90;99.90;;;;;;5021946;28;20206;-75
2021/10/09 01:29:05;;;;;;;30.77;16.07;;;5.90;99.90;;;;;;5021073;28;20626;-76
2021/10/09 01:31:32;;;;;;;79.57;18.23;;;5.80;99.90;;;;;;5019956;28;20200;-75
2021/10/09 01:34:00;;;;;;;77.27;17.10;;;5.80;99.90;;;;;;5020431;28;20197;-75
2021/10/09 01:36:30;;;;;;;59.03;16.63;;;5.50;99.90;;;;;;5030294;28;20195;-76
2021/10/09 01:38:59;;;;;;;30.67;16.43;;;5.40;99.90;;;;;;5027837;28;20207;-75
2021/10/09 01:41:26;;;;;;;36.27;17.63;;;5.40;99.90;;;;;;5033459;28;20739;-76
2021/10/09 01:43:54;;;;;;;39.87;16.33;;;5.20;99.90;;;;;;5038962;28;20196;-76
2021/10/09 01:46:21;;;;;;;37.73;15.83;;;5.10;99.90;;;;;;5037409;28;20212;-75
2021/10/09 01:48:48;;;;;;;41.10;15.73;;;5.10;99.90;;;;;;5028866;28;20694;-76
2021/10/09 01:51:17;;;;;;;31.10;16.33;;;5.10;99.90;;;;;;5032299;28;20654;-75
2021/10/09 01:53:45;;;;;;;39.17;17.20;;;5.20;99.90;;;;;;5042420;28;20275;-76
2021/10/09 01:56:14;;;;;;;34.73;17.20;;;5.20;99.90;;;;;;5032699;28;20215;-75
2021/10/09 01:58:41;;;;;;;62.00;16.93;;;5.10;99.90;;;;;;5015931;28;20279;-76
2021/10/09 02:01:09;;;;;;;47.73;17.30;;;5.00;99.90;;;;;;5020739;28;20243;-76
2021/10/09 02:03:36;;;;;;;66.57;16.80;;;5.00;99.90;;;;;;5027783;28;20228;-75
2021/10/09 02:06:04;;;;;;;42.83;15.93;;;5.20;99.90;;;;;;5029828;28;20654;-76
2021/10/09 02:08:31;;;;;;;21.87;15.97;;;5.10;99.90;;;;;;5030384;28;20227;-76
2021/10/09 02:11:01;;;;;;;20.70;15.10;;;5.30;99.90;;;;;;5028851;28;20252;-76
2021/10/09 02:13:35;;;;;;;24.63;15.87;;;5.40;99.90;;;;;;5027132;28;20256;-76
2021/10/09 02:16:08;;;;;;;45.73;16.97;;;5.70;99.90;;;;;;5028424;28;20634;-76
2021/10/09 02:18:41;;;;;;;66.10;17.73;;;5.50;99.90;;;;;;5027464;28;20200;-75
2021/10/09 02:26:37;;;;;;;41.17;15.70;;;5.40;99.90;;;;;;5030584;28;20226;-75
2021/10/09 02:29:05;;;;;;;27.47;16.63;;;5.10;99.90;;;;;;5026549;28;20282;-75
2021/10/09 02:31:32;;;;;;;22.87;15.00;;;5.20;99.90;;;;;;5031733;28;20200;-75
2021/10/09 02:33:59;;;;;;;25.47;14.63;;;5.30;99.90;;;;;;5027747;28;20629;-75
2021/10/09 02:36:26;;;;;;;51.07;14.27;;;5.30;99.90;;;;;;5023064;28;20616;-75
2021/10/09 02:38:53;;;;;;;46.40;15.20;;;5.20;99.90;;;;;;5028719;28;20203;-75
2021/10/09 02:41:20;;;;;;;96.17;15.40;;;5.00;99.90;;;;;;5028635;28;20200;-76
2021/10/09 02:43:47;;;;;;;42.10;14.77;;;5.00;99.90;;;;;;5029120;28;20242;-75
2021/10/09 02:46:16;;;;;;;65.20;14.03;;;5.10;99.90;;;;;;5030583;28;20701;-75
2021/10/09 02:48:43;;;;;;;60.43;15.57;;;4.80;99.90;;;;;;5044532;28;20255;-75
2021/10/09 02:51:10;;;;;;;41.40;16.13;;;4.60;99.90;;;;;;5037314;28;20204;-75
2021/10/09 02:53:37;;;;;;;25.87;15.13;;;4.50;99.90;;;;;;5047516;28;20203;-74
2021/10/09 02:56:04;;;;;;;25.50;16.43;;;4.50;99.90;;;;;;5034127;28;20200;-76
2021/10/09 02:58:31;;;;;;;25.27;16.80;;;4.70;99.90;;;;;;5031579;28;20673;-75
2021/10/09 03:00:58;;;;;;;28.37;17.33;;;4.80;99.90;;;;;;5041679;28;20710;-75
2021/10/09 03:03:27;;;;;;;28.47;17.97;;;4.70;99.90;;;;;;5030579;28;20216;-74
2021/10/09 03:05:54;;;;;;;30.60;19.67;;;4.90;99.90;;;;;;5033491;28;20204;-75
2021/10/09 03:08:21;;;;;;;33.33;19.80;;;5.10;99.90;;;;;;5030910;28;20227;-75
2021/10/09 03:10:48;;;;;;;35.53;20.33;;;5.60;99.90;;;;;;5040394;28;20256;-76
2021/10/09 03:13:15;;;;;;;32.17;20.23;;;5.60;99.90;;;;;;5030424;28;20260;-75
2021/10/09 03:15:42;;;;;;;31.30;20.40;;;5.60;99.90;;;;;;5036390;28;20244;-74
2021/10/09 03:18:09;;;;;;;35.67;21.83;;;5.60;99.90;;;;;;5051085;28;20660;-76
2021/10/09 03:20:37;;;;;;;34.23;21.10;;;5.50;99.90;;;;;;5028409;28;20698;-75
2021/10/09 03:23:04;;;;;;;29.97;19.33;;;5.40;99.90;;;;;;5031322;28;20253;-75
2021/10/09 03:25:31;;;;;;;28.80;18.20;;;5.10;99.90;;;;;;5036233;28;20299;-75
2021/10/09 03:27:58;;;;;;;30.80;19.53;;;5.00;99.90;;;;;;5050803;28;20244;-75
2021/10/09 03:30:25;;;;;;;28.30;17.97;;;5.00;99.90;;;;;;5037444;28;20204;-75
2021/10/09 03:32:52;;;;;;;33.23;19.33;;;5.10;99.90;;;;;;5036392;28;20200;-75
2021/10/09 03:35:19;;;;;;;28.37;18.53;;;5.10;99.90;;;;;;5030695;28;20257;-75
2021/10/09 03:37:48;;;;;;;27.37;17.27;;;5.10;99.90;;;;;;5037681;28;20199;-75
2021/10/09 03:40:18;;;;;;;27.83;18.13;;;5.20;99.90;;;;;;5038082;28;20241;-75
2021/10/09 03:42:47;;;;;;;27.50;17.23;;;5.20;99.90;;;;;;5022686;28;20630;-75
2021/10/09 03:45:19;;;;;;;39.43;17.53;;;5.10;99.90;;;;;;5030272;28;20210;-76
2021/10/09 03:48:01;;;;;;;26.30;16.80;;;5.10;99.90;;;;;;5030901;28;20199;-75
2021/10/09 03:53:15;;;;;;;27.33;17.03;;;4.90;99.90;;;;;;5038764;28;20190;-75
2021/10/09 03:55:42;;;;;;;28.60;17.47;;;4.90;99.90;;;;;;5030389;28;20268;-75
2021/10/09 03:58:09;;;;;;;26.77;16.03;;;4.90;99.90;;;;;;5030253;28;20668;-75
2021/10/09 04:00:35;;;;;;;31.60;18.63;;;4.70;99.90;;;;;;5032288;28;20570;-76
2021/10/09 04:03:02;;;;;;;30.27;19.27;;;4.70;99.90;;;;;;5044341;28;20269;-75
2021/10/09 04:05:30;;;;;;;31.33;19.93;;;4.90;99.90;;;;;;5029389;28;20256;-75
2021/10/09 04:07:57;;;;;;;33.93;19.67;;;5.10;99.90;;;;;;5030512;28;20202;-75
2021/10/09 04:10:25;;;;;;;33.00;19.67;;;5.20;99.90;;;;;;5025151;28;20230;-75
2021/10/09 04:12:52;;;;;;;33.13;20.17;;;5.20;99.90;;;;;;5041421;28;20641;-75
2021/10/09 04:15:19;;;;;;;31.97;19.83;;;5.20;99.90;;;;;;5031142;28;20204;-75
2021/10/09 04:17:46;;;;;;;29.23;19.10;;;5.30;99.90;;;;;;5030462;28;20343;-75
2021/10/09 04:20:13;;;;;;;29.77;19.73;;;5.20;99.90;;;;;;5037347;28;20203;-75
2021/10/09 04:22:40;;;;;;;31.53;20.40;;;5.20;99.90;;;;;;5033682;28;20261;-75
2021/10/09 04:25:08;;;;;;;33.27;19.90;;;5.20;99.90;;;;;;5029068;28;20196;-76
2021/10/09 04:27:37;;;;;;;26.70;17.83;;;5.20;99.90;;;;;;5029889;28;20256;-76
2021/10/09 04:30:05;;;;;;;26.70;16.57;;;4.80;99.90;;;;;;5035524;28;20573;-75
2021/10/09 04:32:32;;;;;;;28.20;17.33;;;4.60;99.90;;;;;;5029562;28;20630;-75
2021/10/09 04:34:59;;;;;;;28.20;16.83;;;4.40;99.90;;;;;;5025718;28;20204;-76
2021/10/09 04:37:26;;;;;;;26.53;15.70;;;4.40;99.90;;;;;;5033351;28;20196;-76
2021/10/09 04:39:53;;;;;;;25.63;17.20;;;4.40;99.90;;;;;;5033158;28;20204;-75
2021/10/09 04:42:20;;;;;;;26.53;16.27;;;4.40;99.90;;;;;;5050357;28;20199;-75
2021/10/09 04:44:49;;;;;;;28.53;16.87;;;4.50;99.90;;;;;;5040567;28;20203;-75
2021/10/09 04:47:16;;;;;;;28.37;16.63;;;4.80;99.90;;;;;;5040075;28;20725;-75
2021/10/09 04:49:43;;;;;;;25.13;15.83;;;4.70;99.90;;;;;;5042566;28;20303;-75
2021/10/09 04:52:10;;;;;;;22.33;13.87;;;4.30;99.90;;;;;;5030341;28;20196;-75
2021/10/09 04:54:37;;;;;;;24.33;15.80;;;4.10;99.90;;;;;;5029234;28;20257;-75
2021/10/09 04:57:04;;;;;;;23.00;14.87;;;4.20;99.90;;;;;;5048317;28;20203;-76
2021/10/09 04:59:31;;;;;;;23.10;15.50;;;4.10;99.90;;;;;;5047517;28;20255;-76
2021/10/09 05:01:59;;;;;;;26.40;15.10;;;3.90;99.90;;;;;;5032278;28;20207;-75
2021/10/09 05:04:26;;;;;;;25.43;15.83;;;3.50;99.90;;;;;;5030452;28;20204;-75
2021/10/09 05:06:54;;;;;;;25.30;14.77;;;3.50;99.90;;;;;;5025738;28;20203;-76
2021/10/09 05:09:21;;;;;;;28.30;15.37;;;3.70;99.90;;;;;;5028370;28;20351;-75
2021/10/09 05:11:48;;;;;;;26.83;16.00;;;3.60;99.90;;;;;;5029183;28;20199;-76
2021/10/09 05:14:15;;;;;;;26.00;14.63;;;3.60;99.90;;;;;;5025625;28;20246;-68
2021/10/09 05:16:42;;;;;;;46.23;15.60;;;3.50;99.90;;;;;;5032010;28;20227;-67
2021/10/09 05:19:10;;;;;;;36.60;14.40;;;3.60;99.90;;;;;;5034118;28;20235;-68
2021/10/09 05:21:37;;;;;;;43.43;15.60;;;3.60;99.90;;;;;;5048812;28;20224;-68
2021/10/09 05:24:05;;;;;;;49.23;14.47;;;3.70;99.90;;;;;;5036244;28;20249;-67
2021/10/09 05:26:32;;;;;;;50.90;15.57;;;3.60;99.90;;;;;;5029513;28;20260;-68
2021/10/09 05:28:59;;;;;;;50.37;15.87;;;3.60;99.90;;;;;;5036898;28;20647;-67
2021/10/09 05:31:29;;;;;;;48.80;15.10;;;3.70;99.90;;;;;;5029468;28;20657;-67
2021/10/09 05:33:56;;;;;;;31.57;14.50;;;3.60;99.90;;;;;;5033174;28;20621;-68
2021/10/09 05:36:25;;;;;;;32.93;15.70;;;3.50;99.90;;;;;;5028479;28;20533;-67
2021/10/09 05:38:53;;;;;;;41.73;16.53;;;3.50;99.90;;;;;;5041702;28;20650;-68
2021/10/09 05:41:21;;;;;;;63.70;16.63;;;3.60;99.90;;;;;;5045446;28;20211;-67
2021/10/09 05:43:48;;;;;;;40.20;14.63;;;3.60;99.90;;;;;;5038430;28;20206;-68
2021/10/09 05:46:17;;;;;;;45.33;16.57;;;3.70;99.90;;;;;;5028927;28;20718;-68
2021/10/09 05:48:44;;;;;;;37.33;15.40;;;3.60;99.90;;;;;;5041913;28;20198;-68
2021/10/09 05:51:15;;;;;;;33.93;15.10;;;3.60;99.90;;;;;;5048561;28;20207;-68
2021/10/09 05:53:51;;;;;;;36.43;15.67;;;3.50;99.90;;;;;;5029073;28;20765;-68
2021/10/09 05:56:25;;;;;;;37.50;15.73;;;3.60;99.90;;;;;;5029195;28;20199;-68
2021/10/09 05:58:59;;;;;;;22.63;14.23;;;3.70;99.90;;;;;;5039326;28;20203;-68
2021/10/09 06:01:43;;;;;;;27.30;15.57;;;3.80;99.90;;;;;;5099609;28;20211;-68
2021/10/09 06:32:20;;;;;;;30.47;15.77;;;4.30;99.90;;;;;;5031367;28;20199;-68
2021/10/09 06:59:38;;;;;;;30.63;18.50;;;5.20;99.90;;;;;;5031385;28;20211;-67
2021/10/09 07:02:05;;;;;;;30.43;19.10;;;5.30;99.90;;;;;;5030879;28;20207;-68
2021/10/09 07:04:32;;;;;;;31.60;18.83;;;5.40;99.90;;;;;;5030173;28;20212;-68
2021/10/09 07:07:03;;;;;;;28.87;17.90;;;5.40;99.90;;;;;;5013615;28;20240;-67
2021/10/09 07:09:30;;;;;;;29.97;17.50;;;5.40;99.90;;;;;;5031127;28;20457;-68
2021/10/09 07:11:57;;;;;;;31.43;19.00;;;5.40;99.90;;;;;;5031367;28;20233;-67
2021/10/09 07:14:24;;;;;;;38.33;20.07;;;5.50;99.90;;;;;;5029327;28;20204;-69
2021/10/09 07:16:52;;;;;;;32.63;18.77;;;5.60;99.90;;;;;;5029718;28;20215;-69
2021/10/09 07:19:19;;;;;;;32.93;20.07;;;5.60;99.90;;;;;;5030074;28;20316;-69
2021/10/09 07:21:46;;;;;;;31.70;19.20;;;5.80;99.90;;;;;;5030498;28;20200;-68
2021/10/09 07:24:14;;;;;;;34.97;19.43;;;5.90;99.90;;;;;;5030275;28;20207;-69
2021/10/09 07:26:41;;;;;;;35.10;20.60;;;6.10;99.90;;;;;;5042368;27;20203;-69
2021/10/09 07:29:08;;;;;;;32.03;19.50;;;6.00;99.90;;;;;;5030889;28;20200;-69
2021/10/09 07:31:35;;;;;;;28.17;19.50;;;6.20;99.90;;;;;;5029218;28;20248;-69
2021/10/09 07:34:04;;;;;;;31.27;20.57;;;6.20;99.90;;;;;;5030589;28;20677;-68
2021/10/09 07:36:31;;;;;;;30.30;18.77;;;6.20;99.90;;;;;;5024249;28;20256;-69
2021/10/09 07:38:58;;;;;;;32.37;19.67;;;6.30;99.90;;;;;;5030359;28;20208;-69
2021/10/09 07:41:25;;;;;;;31.50;20.60;;;6.50;99.90;;;;;;5038240;28;20200;-69
2021/10/09 07:43:52;;;;;;;31.83;19.80;;;6.50;99.90;;;;;;5045893;28;20534;-68
2021/10/09 07:46:19;;;;;;;29.70;19.00;;;6.60;99.90;;;;;;5030878;28;20196;-69
2021/10/09 07:48:46;;;;;;;32.80;19.53;;;6.60;99.90;;;;;;5030582;28;20199;-69
2021/10/09 07:51:14;;;;;;;37.47;19.67;;;6.90;99.90;;;;;;5080865;22;20226;-81
2021/10/09 07:53:41;;;;;;;31.73;18.93;;;6.90;99.90;;;;;;5105105;28;20225;-81
2021/10/09 07:56:08;;;;;;;28.87;19.37;;;7.00;99.90;;;;;;5105295;28;20213;-82
2021/10/09 07:58:35;;;;;;;30.43;19.47;;;7.00;99.90;;;;;;5103879;28;20217;-81
2021/10/09 08:01:01;;;;;;;34.17;19.60;;;6.90;99.90;;;;;;5103409;28;20252;-82
2021/10/09 08:03:28;;;;;;;32.70;19.53;;;7.00;99.90;;;;;;5100550;28;20201;-80
2021/10/09 08:05:55;;;;;;;32.73;19.03;;;7.20;99.90;;;;;;5101208;28;20202;-81
2021/10/09 08:08:24;;;;;;;31.67;20.00;;;7.20;99.90;;;;;;5099062;28;20221;-82
2021/10/09 08:10:53;;;;;;;32.17;19.27;;;7.20;99.90;;;;;;5105159;28;20232;-80
2021/10/09 08:13:20;;;;;;;29.27;19.17;;;7.30;99.90;;;;;;5097003;28;20618;-83
2021/10/09 08:15:47;;;;;;;39.20;19.17;;;7.40;99.90;;;;;;5092256;28;20233;-80
2021/10/09 08:18:14;;;;;;;30.93;18.70;;;7.30;99.90;;;;;;5095023;28;20204;-81
2021/10/09 08:20:43;;;;;;;31.67;19.27;;;7.40;99.90;;;;;;5095244;28;20225;-81
2021/10/09 08:23:14;;;;;;;32.70;19.13;;;7.40;99.90;;;;;;5094728;28;20200;-81
2021/10/09 08:36:54;;;;;;;28.57;17.83;;;7.80;99.90;;;;;;5075871;28;20604;-79
2021/10/09 08:39:20;;;;;;;30.47;19.97;;;7.70;99.90;;;;;;5093515;28;20213;-80
2021/10/09 08:41:50;;;;;;;31.70;18.40;;;7.90;99.90;;;;;;5095086;28;20246;-78
2021/10/09 08:44:18;;;;;;;31.60;18.00;;;8.10;99.90;;;;;;5088780;28;20682;-77
2021/10/09 08:46:44;;;;;;;32.30;19.53;;;8.10;99.90;;;;;;5093320;28;20201;-80
2021/10/09 08:49:11;;;;;;;30.50;18.13;;;8.20;99.90;;;;;;5134772;22;20224;-69
2021/10/09 08:51:40;;;;;;;30.40;19.47;;;8.20;99.90;;;;;;5066716;28;20288;-69
2021/10/09 08:54:09;;;;;;;27.43;18.43;;;8.40;99.90;;;;;;5072367;28;20569;-69
2021/10/09 08:56:38;;;;;;;32.43;19.27;;;8.40;99.90;;;;;;5068174;28;20202;-69
2021/10/09 08:59:17;;;;;;;34.90;19.53;;;8.60;99.90;;;;;;5063045;28;20203;-69
2021/10/09 09:01:54;;;;;;;33.23;20.07;;;8.70;99.90;;;;;;5070709;28;20238;-69
2021/10/09 09:04:41;;;;;;;27.63;18.40;;;8.90;99.90;;;;;;5072273;28;20804;-69
2021/10/09 09:35:32;;;;;;;27.73;18.60;;;10.40;99.90;;;;;;5071167;28;20193;-69
2021/10/09 09:40:51;;;;;;;30.73;19.37;;;10.80;99.90;;;;;;5066913;28;20194;-70
2021/10/09 09:43:18;;;;;;;28.43;18.53;;;11.20;99.90;;;;;;5073245;28;20233;-76
2021/10/09 09:45:45;;;;;;;30.37;18.10;;;11.20;99.90;;;;;;5070995;28;20206;-76
2021/10/09 09:48:13;;;;;;;30.63;19.70;;;11.40;99.90;;;;;;5070976;28;20199;-76
2021/10/09 09:50:42;;;;;;;27.27;18.07;;;11.50;99.90;;;;;;5073147;28;20222;-76
2021/10/09 09:53:09;;;;;;;30.83;19.10;;;11.50;99.90;;;;;;5071971;28;20369;-76
2021/10/09 09:55:36;;;;;;;29.20;18.57;;;11.90;99.90;;;;;;5067221;28;20194;-75
2021/10/09 09:58:04;;;;;;;29.37;18.27;;;11.90;99.90;;;;;;5073260;28;20715;-76
2021/10/09 10:00:34;;;;;;;27.17;18.07;;;12.10;99.90;;;;;;5070316;28;20198;-76
2021/10/09 10:03:04;;;;;;;38.63;18.40;;;12.10;99.90;;;;;;5069080;28;20291;-76
2021/10/09 10:05:33;;;;;;;30.27;17.03;;;12.20;99.90;;;;;;5076549;28;20241;-76
2021/10/09 10:08:00;;;;;;;28.93;18.23;;;12.20;99.90;;;;;;5070994;28;20202;-76
2021/10/09 10:10:27;;;;;;;28.70;16.97;;;12.30;99.90;;;;;;5073778;28;20226;-76
2021/10/09 10:12:57;;;;;;;27.47;16.93;;;12.40;99.90;;;;;;5066531;28;20305;-76
2021/10/09 10:15:32;;;;;;;27.07;16.80;;;12.60;99.90;;;;;;5067110;28;20564;-76
2021/10/09 10:18:00;;;;;;;28.70;17.60;;;12.70;99.90;;;;;;5070464;28;20202;-76
2021/10/09 10:20:47;;;;;;;27.63;17.43;;;12.60;99.90;;;;;;5071097;28;20578;-76
2021/10/09 10:23:33;;;;;;;25.67;16.17;;;12.70;99.90;;;;;;5073114;28;20208;-77
2021/10/09 10:26:26;;;;;;;28.60;17.10;;;12.70;99.90;;;;;;5069520;28;20210;-76
2021/10/09 10:29:23;;;;;;;25.43;16.40;;;12.70;99.90;;;;;;5064093;28;20280;-76
2021/10/09 10:32:13;;;;;;;32.10;17.37;;;12.70;99.90;;;;;;5072245;28;20230;-76
2021/10/09 10:34:42;;;;;;;26.43;17.37;;;13.00;99.90;;;;;;5074100;28;20224;-76
2021/10/09 10:37:36;;;;;;;26.87;16.37;;;13.10;99.90;;;;;;5069747;28;20206;-76
2021/10/09 10:40:04;;;;;;;26.70;15.93;;;13.10;99.90;;;;;;5064253;28;20191;-76
2021/10/09 10:42:31;;;;;;;24.83;14.77;;;13.10;99.90;;;;;;5069138;28;20199;-76
2021/10/09 10:45:05;;;;;;;28.93;15.37;;;13.20;99.90;;;;;;5068278;28;20203;-76
2021/10/09 10:47:47;;;;;;;26.27;15.63;;;13.30;99.90;;;;;;5074236;28;20210;-76
2021/10/09 10:50:58;;;;;;;24.13;14.73;;;13.20;99.90;;;;;;5066382;28;20230;-76
2021/10/09 10:54:34;;;;;;;25.00;14.90;;;13.50;99.90;;;;;;5004781;28;20282;-76
2021/10/09 10:57:23;;;;;;;26.10;14.10;;;13.60;99.90;;;;;;5067175;28;20660;-76
2021/10/09 10:59:56;;;;;;;25.80;13.67;;;14.00;99.90;;;;;;5069834;28;20205;-77
2021/10/09 11:02:26;;;;;;;19.40;12.77;;;13.80;99.90;;;;;;5069603;28;20670;-76
2021/10/09 11:04:55;;;;;;;23.63;12.93;;;14.00;99.90;;;;;;5066865;28;20209;-76
2021/10/09 11:07:26;;;;;;;24.97;13.50;;;14.00;99.90;;;;;;5071235;28;20289;-77
2021/10/09 11:09:53;;;;;;;19.20;12.03;;;14.00;99.90;;;;;;5073551;28;20565;-76
2021/10/09 11:12:32;;;;;;;21.83;12.13;;;14.00;99.90;;;;;;5072293;28;20233;-76
2021/10/09 11:15:11;;;;;;;20.70;12.10;;;14.40;99.90;;;;;;5075332;28;20208;-76
2021/10/09 11:17:40;;;;;;;18.97;11.73;;;14.30;99.90;;;;;;5077974;28;20233;-76
2021/10/09 11:20:08;;;;;;;19.80;11.37;;;14.50;99.90;;;;;;5071282;28;20227;-76
2021/10/09 11:22:41;;;;;;;20.03;10.53;;;14.50;99.50;;;;;;5072018;28;20668;-76
2021/10/09 11:25:08;;;;;;;19.47;11.40;;;14.50;98.10;;;;;;5074389;28;20208;-76
2021/10/09 11:27:38;;;;;;;19.47;11.30;;;14.50;98.00;;;;;;5077263;28;20951;-76
2021/10/09 11:30:07;;;;;;;17.40;10.07;;;14.50;97.50;;;;;;5073715;28;20653;-76
2021/10/09 11:32:36;;;;;;;16.27;9.70;;;14.70;96.60;;;;;;5075066;28;20596;-76
2021/10/09 11:35:05;;;;;;;18.67;10.30;;;14.70;95.10;;;;;;5071086;28;20652;-76
2021/10/09 11:37:34;;;;;;;17.87;10.70;;;14.70;96.20;;;;;;5070499;28;20203;-76
2021/10/09 11:40:03;;;;;;;20.23;12.00;;;15.00;96.70;;;;;;5072756;28;20651;-77
2021/10/09 11:42:32;;;;;;;20.10;10.97;;;14.80;96.80;;;;;;5072158;28;20210;-76
2021/10/09 11:45:05;;;;;;;19.90;10.57;;;14.80;95.50;;;;;;5074864;28;20210;-76
2021/10/09 11:56:00;;;;;;;19.67;8.97;;;15.10;90.90;;;;;;5072596;28;20205;-76
2021/10/09 11:58:29;;;;;;;15.90;8.50;;;15.10;89.30;;;;;;5070655;28;20230;-77
2021/10/09 12:00:57;;;;;;;14.10;8.20;;;15.30;85.80;;;;;;5075874;28;20243;-77
2021/10/09 12:03:33;;;;;;;15.13;7.80;;;15.20;82.40;;;;;;5071727;28;20221;-76
2021/10/09 12:06:03;;;;;;;13.43;7.17;;;15.10;80.40;;;;;;5069597;28;20195;-76
2021/10/09 12:08:32;;;;;;;15.63;6.93;;;15.50;83.90;;;;;;5073148;28;20202;-76
2021/10/09 12:11:10;;;;;;;12.73;7.30;;;15.30;79.70;;;;;;5057208;28;20230;-76
2021/10/09 12:13:52;;;;;;;11.57;6.77;;;15.10;77.80;;;;;;5064330;28;20206;-76
2021/10/09 12:16:24;;;;;;;11.73;6.97;;;15.40;79.60;;;;;;5058590;28;20191;-76
2021/10/09 12:18:55;;;;;;;14.83;7.07;;;15.30;76.80;;;;;;5067524;28;20202;-76
2021/10/09 12:21:24;;;;;;;15.43;6.80;;;15.10;76.80;;;;;;5067615;28;20191;-76
2021/10/09 12:23:53;;;;;;;12.53;6.97;;;15.10;75.60;;;;;;5068171;28;20292;-76
2021/10/09 12:26:21;;;;;;;13.47;6.97;;;15.10;70.40;;;;;;5063649;28;20201;-75
2021/10/09 12:29:11;;;;;;;11.90;6.43;;;15.40;70.90;;;;;;5073319;28;20245;-75
2021/10/09 12:31:43;;;;;;;11.33;7.10;;;15.70;71.70;;;;;;5071683;28;20222;-76
2021/10/09 12:34:30;;;;;;;13.07;6.73;;;15.60;76.80;;;;;;5073698;28;20690;-76
2021/10/09 12:37:17;;;;;;;14.57;7.63;;;15.90;76.70;;;;;;5059710;28;20209;-76
2021/10/09 12:39:45;;;;;;;14.73;7.20;;;15.70;77.10;;;;;;5060170;28;20221;-76
2021/10/09 12:42:13;;;;;;;12.43;7.50;;;15.70;78.70;;;;;;5073134;28;20198;-76
2021/10/09 12:44:40;;;;;;;14.03;6.83;;;15.40;80.20;;;;;;5071642;28;20198;-76
2021/10/09 12:47:09;;;;;;;14.07;7.82;;;15.70;81.70;;;;;;5064198;28;20331;-76
2021/10/09 12:49:36;;;;;;;13.93;7.33;;;15.40;79.80;;;;;;5068850;28;20214;-76
2021/10/09 12:52:03;;;;;;;13.20;8.07;;;15.40;80.70;;;;;;5072574;28;20301;-76
2021/10/09 12:54:32;;;;;;;14.68;7.43;;;15.40;82.10;;;;;;5068812;28;20206;-76
2021/10/09 12:56:58;;;;;;;12.70;7.40;;;15.30;81.80;;;;;;5060896;28;20209;-76
2021/10/09 12:59:26;;;;;;;13.03;7.43;;;15.30;83.00;;;;;;5060392;28;20235;-76
2021/10/09 13:01:53;;;;;;;13.67;7.67;;;15.40;81.70;;;;;;5070629;28;20613;-76
2021/10/09 13:04:22;;;;;;;16.60;7.53;;;15.30;78.60;;;;;;5063067;28;20281;-76
2021/10/09 13:06:48;;;;;;;12.33;7.00;;;15.50;78.70;;;;;;5068145;28;20213;-76
2021/10/09 13:09:17;;;;;;;13.30;7.27;;;15.30;79.30;;;;;;5069948;28;20198;-76
2021/10/09 13:11:50;;;;;;;16.03;7.73;;;15.30;76.80;;;;;;5067631;28;20677;-76
2021/10/09 13:14:17;;;;;;;12.70;7.37;;;15.30;76.30;;;;;;5069209;28;20542;-76
2021/10/09 13:16:43;;;;;;;11.60;7.28;;;15.20;76.00;;;;;;5071019;28;20656;-75
2021/10/09 13:19:10;;;;;;;11.80;7.37;;;15.30;77.40;;;;;;5068730;28;20206;-76
2021/10/09 13:21:40;;;;;;;12.80;7.00;;;15.10;76.90;;;;;;5061607;28;20199;-76
2021/10/09 13:24:07;;;;;;;16.13;7.50;;;15.00;77.80;;;;;;5065711;28;20210;-75
2021/10/09 13:26:34;;;;;;;13.47;7.80;;;15.10;79.10;;;;;;5061971;28;20582;-76
2021/10/09 13:29:02;;;;;;;13.27;7.50;;;15.10;79.00;;;;;;5064278;28;20263;-76
2021/10/09 13:31:29;;;;;;;20.80;8.17;;;15.20;78.40;;;;;;5058091;28;20289;-75
2021/10/09 13:33:57;;;;;;;15.80;8.10;;;15.00;80.90;;;;;;5066511;28;20648;-76
2021/10/09 13:36:24;;;;;;;18.98;8.93;;;15.20;81.40;;;;;;5064302;28;20671;-76
2021/10/09 13:38:53;;;;;;;17.43;7.87;;;15.10;80.00;;;;;;5056958;28;20214;-75
2021/10/09 13:41:21;;;;;;;14.93;8.40;;;15.20;80.30;;;;;;5055369;28;20211;-75
2021/10/09 13:43:48;;;;;;;17.13;8.33;;;15.20;80.60;;;;;;5062936;28;20206;-76
2021/10/09 13:46:16;;;;;;;17.63;7.60;;;15.10;80.80;;;;;;5062213;28;20261;-75
2021/10/09 13:48:44;;;;;;;15.30;8.67;;;15.50;82.50;;;;;;5054579;28;20512;-76
2021/10/09 13:51:13;;;;;;;16.30;8.50;;;15.10;81.70;;;;;;5067720;28;20238;-75
2021/10/09 13:53:40;;;;;;;17.33;8.03;;;15.40;81.70;;;;;;5055972;28;20207;-75
2021/10/09 13:56:09;;;;;;;14.50;7.60;;;15.80;81.80;;;;;;5061600;28;20572;-76
2021/10/09 13:58:37;;;;;;;17.23;8.60;;;16.20;79.70;;;;;;5062876;28;20217;-76
2021/10/09 14:01:04;;;;;;;15.70;8.77;;;15.70;81.30;;;;;;5064776;28;20217;-76
2021/10/09 14:03:33;;;;;;;16.43;9.23;;;15.20;83.50;;;;;;5065201;28;20210;-75
2021/10/09 14:06:00;;;;;;;16.47;9.20;;;14.70;84.30;;;;;;5064324;28;20259;-75
2021/10/09 14:08:28;;;;;;;14.63;8.67;;;14.90;84.80;;;;;;5062201;28;20206;-75
2021/10/09 14:10:56;;;;;;;11.90;7.40;;;14.70;82.60;;;;;;5057472;28;20207;-75
2021/10/09 14:13:25;;;;;;;15.57;8.07;;;14.80;83.80;;;;;;5062676;28;20264;-75
2021/10/09 14:15:52;;;;;;;14.30;8.60;;;14.90;82.70;;;;;;5065112;28;20210;-75
2021/10/09 14:18:20;;;;;;;14.50;7.83;;;14.90;82.30;;;;;;5064560;28;20202;-75
2021/10/09 14:20:48;;;;;;;13.37;8.30;;;14.70;84.00;;;;;;5057843;28;20207;-75
2021/10/09 14:23:15;;;;;;;15.40;7.87;;;14.80;84.70;;;;;;5068264;28;20210;-75
2021/10/09 14:25:42;;;;;;;13.10;7.43;;;14.90;84.90;;;;;;5048452;28;20215;-75
2021/10/09 14:28:09;;;;;;;16.37;7.70;;;14.70;84.50;;;;;;5062477;28;20206;-75
2021/10/09 14:30:38;;;;;;;13.53;7.87;;;14.70;83.40;;;;;;5067220;28;20209;-75
2021/10/09 14:33:05;;;;;;;13.43;7.97;;;14.70;84.80;;;;;;5062395;28;20754;-75
2021/10/09 14:35:33;;;;;;;10.60;6.83;;;14.70;83.80;;;;;;5058345;28;20218;-75
2021/10/09 14:38:00;;;;;;;12.70;7.00;;;14.70;85.40;;;;;;5066283;28;20780;-75